createdAt,value
2023-02-11T00:00:21.947Z,101771.47
2023-02-11T00:02:48.444Z,101777.47
2023-02-11T00:05:15.639Z,101783.53
2023-02-11T00:07:42.200Z,101785.78
2023-02-11T00:10:09.356Z,101782.22
2023-02-11T00:12:37.263Z,101777.03
2023-02-11T00:15:05.207Z,101771.66
2023-02-11T00:17:32.774Z,101763.56
2023-02-11T00:19:59.347Z,101761.75
2023-02-11T00:22:25.957Z,101760.19
2023-02-11T00:24:52.548Z,101760.53
2023-02-11T00:27:19.128Z,101761.84
2023-02-11T00:29:45.647Z,101756.28
2023-02-11T00:32:12.278Z,101756.34
2023-02-11T00:34:38.949Z,101748.38
2023-02-11T00:37:06.222Z,101755.66
2023-02-11T00:39:32.894Z,101751.09
2023-02-11T00:41:59.658Z,101751.75
2023-02-11T00:44:27.200Z,101747.50
2023-02-11T00:46:53.676Z,101752.22
2023-02-11T00:49:20.217Z,101746.28
2023-02-11T00:51:46.824Z,101748.53
2023-02-11T00:54:13.360Z,101743.22
2023-02-11T00:56:39.964Z,101738.97
2023-02-11T00:59:06.738Z,101743.16
2023-02-11T01:01:33.414Z,101740.03
2023-02-11T01:04:00.150Z,101735.78
2023-02-11T01:06:27.293Z,101737.28
2023-02-11T01:08:53.807Z,101731.91
2023-02-11T01:11:21.772Z,101736.88
2023-02-11T01:13:49.589Z,101740.03
2023-02-11T01:16:16.944Z,101739.44
2023-02-11T01:18:44.368Z,101735.09
2023-02-11T01:21:11.638Z,101733.88
2023-02-11T01:23:38.226Z,101725.06
2023-02-11T01:26:05.768Z,101722.66
2023-02-11T01:28:32.935Z,101727.53
2023-02-11T01:31:00.984Z,101729.06
2023-02-11T01:33:27.615Z,101724.34
2023-02-11T01:35:54.404Z,101720.00
2023-02-11T01:38:24.145Z,101717.59
2023-02-11T01:40:53.269Z,101716.91
2023-02-11T01:43:20.393Z,101719.34
2023-02-11T01:45:49.852Z,101716.56
2023-02-11T01:48:24.703Z,101710.47
2023-02-11T01:50:55.142Z,101705.41
2023-02-11T01:53:40.744Z,101704.53
2023-02-11T01:56:26.926Z,101708.97
2023-02-11T01:59:00.657Z,101705.44
2023-02-11T02:01:30.147Z,101704.28
2023-02-11T02:04:01.810Z,101699.50
2023-02-11T02:06:37.373Z,101701.44
2023-02-11T02:09:09.563Z,101704.72
2023-02-11T02:11:36.597Z,101703.97
2023-02-11T02:14:03.766Z,101705.03
2023-02-11T02:16:35.043Z,101698.50
2023-02-11T02:19:39.240Z,101697.94
2023-02-11T02:22:45.802Z,101705.50
2023-02-11T02:25:28.795Z,101695.84
2023-02-11T02:28:25.974Z,101694.38
2023-02-11T02:31:20.396Z,101696.19
2023-02-11T02:34:03.419Z,101682.53
2023-02-11T02:36:50.662Z,101688.00
2023-02-11T02:39:33.805Z,101673.41
2023-02-11T02:42:01.932Z,101674.59
2023-02-11T02:44:29.775Z,101672.22
2023-02-11T02:46:56.717Z,101668.84
2023-02-11T02:49:23.283Z,101662.38
2023-02-11T02:52:13.305Z,101662.38
2023-02-11T02:54:57.312Z,101662.50
2023-02-11T02:57:40.969Z,101651.97
2023-02-11T03:00:44.297Z,101660.75
2023-02-11T03:03:38.030Z,101661.63
2023-02-11T03:06:21.547Z,101659.28
2023-02-11T03:08:55.022Z,101656.13
2023-02-11T03:11:22.200Z,101665.25
2023-02-11T03:13:50.867Z,101655.31
2023-02-11T03:16:22.135Z,101648.53
2023-02-11T03:18:53.185Z,101648.38
2023-02-11T03:21:20.966Z,101649.13
2023-02-11T03:23:55.755Z,101640.97
2023-02-11T03:26:36.002Z,101642.56
2023-02-11T03:29:24.184Z,101635.28
2023-02-11T03:32:07.513Z,101643.47
2023-02-11T03:34:53.523Z,101632.38
2023-02-11T03:37:32.040Z,101633.41
2023-02-11T03:40:06.585Z,101638.19
2023-02-11T03:42:39.850Z,101632.22
2023-02-11T03:45:10.693Z,101630.28
2023-02-11T03:47:40.758Z,101631.66
2023-02-11T03:50:10.802Z,101630.19
2023-02-11T03:52:38.497Z,101635.94
2023-02-11T03:55:12.959Z,101635.50
2023-02-11T03:57:39.694Z,101632.25
2023-02-11T04:00:07.406Z,101620.78
2023-02-11T04:02:36.961Z,101630.84
2023-02-11T04:05:05.171Z,101635.91
2023-02-11T04:07:31.670Z,101632.06
2023-02-11T04:09:58.319Z,101630.28
2023-02-11T04:12:24.893Z,101625.53
2023-02-11T04:14:51.547Z,101628.78
2023-02-11T04:17:18.669Z,101632.25
2023-02-11T04:19:45.165Z,101640.41
2023-02-11T04:22:11.667Z,101624.53
2023-02-11T04:24:38.867Z,101634.63
2023-02-11T04:27:05.451Z,101634.19
2023-02-11T04:29:32.140Z,101634.94
2023-02-11T04:31:58.672Z,101632.84
2023-02-11T04:34:25.269Z,101636.41
2023-02-11T04:36:51.885Z,101629.91
2023-02-11T04:39:19.084Z,101633.13
2023-02-11T04:41:45.831Z,101632.13
2023-02-11T04:44:12.492Z,101636.97
2023-02-11T04:46:39.171Z,101633.56
2023-02-11T04:49:05.849Z,101629.44
2023-02-11T04:51:32.595Z,101625.41
2023-02-11T04:53:59.279Z,101633.13
2023-02-11T04:56:25.829Z,101613.84
2023-02-11T04:58:52.551Z,101616.84
2023-02-11T05:01:19.224Z,101614.44
2023-02-11T05:03:45.896Z,101619.91
2023-02-11T05:06:12.539Z,101612.81
2023-02-11T05:08:39.838Z,101616.81
2023-02-11T05:11:07.570Z,101622.16
2023-02-11T05:13:34.388Z,101625.41
2023-02-11T05:16:01.006Z,101619.78
2023-02-11T05:18:27.523Z,101622.00
2023-02-11T05:20:54.108Z,101625.69
2023-02-11T05:23:20.681Z,101619.00
2023-02-11T05:25:47.159Z,101620.34
2023-02-11T05:28:13.830Z,101618.38
2023-02-11T05:30:40.909Z,101621.09
2023-02-11T05:33:07.505Z,101623.63
2023-02-11T05:35:34.064Z,101620.84
2023-02-11T05:38:00.581Z,101616.53
2023-02-11T05:40:27.193Z,101617.13
2023-02-11T05:42:53.697Z,101620.03
2023-02-11T05:45:20.269Z,101616.78
2023-02-11T05:47:46.798Z,101617.38
2023-02-11T05:50:13.546Z,101612.81
2023-02-11T05:52:40.109Z,101613.78
2023-02-11T05:55:06.984Z,101611.59
2023-02-11T05:57:33.549Z,101609.22
2023-02-11T06:00:00.104Z,101605.94
2023-02-11T06:02:26.750Z,101600.47
2023-02-11T06:04:53.407Z,101600.91
2023-02-11T06:07:20.038Z,101604.47
2023-02-11T06:09:46.555Z,101609.06
2023-02-11T06:12:13.450Z,101603.88
2023-02-11T06:14:40.062Z,101607.59
2023-02-11T06:17:06.816Z,101593.09
2023-02-11T06:19:33.500Z,101595.63
2023-02-11T06:22:00.082Z,101598.00
2023-02-11T06:24:50.976Z,101599.47
2023-02-11T06:27:13.515Z,101607.34
2023-02-11T06:29:40.034Z,101612.22
2023-02-11T06:32:08.611Z,101616.84
2023-02-11T06:34:38.546Z,101620.22
2023-02-11T06:37:05.680Z,101609.97
2023-02-11T06:39:32.488Z,101603.19
2023-02-11T06:41:59.023Z,101616.66
2023-02-11T06:44:25.708Z,101609.25
2023-02-11T06:46:52.253Z,101619.50
2023-02-11T06:49:18.838Z,101614.16
2023-02-11T06:51:45.757Z,101611.78
2023-02-11T06:54:12.988Z,101618.13
2023-02-11T06:56:40.576Z,101614.41
2023-02-11T06:59:07.357Z,101622.16
2023-02-11T07:01:34.343Z,101621.88
2023-02-11T07:04:00.916Z,101623.75
2023-02-11T07:06:28.022Z,101619.44
2023-02-11T07:08:55.964Z,101616.22
2023-02-11T07:11:25.297Z,101618.16
2023-02-11T07:13:54.611Z,101624.06
2023-02-11T07:16:21.602Z,101628.63
2023-02-11T07:18:49.157Z,101627.38
2023-02-11T07:21:20.003Z,101621.38
2023-02-11T07:23:48.326Z,101630.38
2023-02-11T07:26:20.131Z,101631.84
2023-02-11T07:28:47.027Z,101628.91
2023-02-11T07:31:20.238Z,101635.56
2023-02-11T07:33:47.574Z,101633.19
2023-02-11T07:36:16.156Z,101640.59
2023-02-11T07:38:43.291Z,101648.00
2023-02-11T07:41:13.459Z,101650.06
2023-02-11T07:43:40.890Z,101650.97
2023-02-11T07:46:10.080Z,101650.81
2023-02-11T07:48:36.732Z,101652.91
2023-02-11T07:51:15.393Z,101647.88
2023-02-11T07:53:42.550Z,101646.22
2023-02-11T07:56:10.859Z,101647.28
2023-02-11T07:58:37.973Z,101650.75
2023-02-11T08:01:07.344Z,101656.44
2023-02-11T08:03:35.368Z,101658.31
2023-02-11T08:06:10.702Z,101667.41
2023-02-11T08:08:37.410Z,101670.94
2023-02-11T08:11:15.652Z,101677.63
2023-02-11T08:13:43.193Z,101682.81
2023-02-11T08:16:18.081Z,101680.44
2023-02-11T08:18:44.623Z,101677.00
2023-02-11T08:21:11.196Z,101692.63
2023-02-11T08:23:39.553Z,101680.97
2023-02-11T08:26:09.868Z,101678.38
2023-02-11T08:28:38.802Z,101677.63
2023-02-11T08:31:07.155Z,101683.28
2023-02-11T08:33:34.753Z,101673.06
2023-02-11T08:36:02.265Z,101669.09
2023-02-11T08:38:28.877Z,101663.22
2023-02-11T08:40:55.448Z,101664.44
2023-02-11T08:43:23.617Z,101668.00
2023-02-11T08:45:50.584Z,101667.09
2023-02-11T08:48:17.242Z,101672.16
2023-02-11T08:50:43.755Z,101668.00
2023-02-11T08:53:10.395Z,101672.72
2023-02-11T08:55:36.995Z,101676.72
2023-02-11T08:58:03.637Z,101670.97
2023-02-11T09:00:30.714Z,101664.44
2023-02-11T09:02:57.391Z,101666.34
2023-02-11T09:05:24.100Z,101663.53
2023-02-11T09:07:50.744Z,101654.78
2023-02-11T09:10:17.329Z,101660.25
2023-02-11T09:12:43.820Z,101655.16
2023-02-11T09:15:10.362Z,101653.94
2023-02-11T09:17:36.866Z,101649.28
2023-02-11T09:20:03.993Z,101647.47
2023-02-11T09:22:30.508Z,101654.16
2023-02-11T09:24:57.100Z,101660.03
2023-02-11T09:27:23.844Z,101650.66
2023-02-11T09:29:50.524Z,101649.56
2023-02-11T09:32:17.191Z,101655.53
2023-02-11T09:34:43.804Z,101653.22
2023-02-11T09:37:10.374Z,101650.56
2023-02-11T09:39:36.844Z,101660.19
2023-02-11T09:42:23.553Z,101658.22
2023-02-11T09:44:50.460Z,101664.88
2023-02-11T09:47:28.548Z,101669.44
2023-02-11T09:50:02.547Z,101657.19
2023-02-11T09:52:47.457Z,101658.25
2023-02-11T09:55:25.583Z,101659.09
2023-02-11T09:57:52.294Z,101662.38
2023-02-11T10:00:27.807Z,101656.44
2023-02-11T10:03:38.038Z,101654.56
2023-02-11T10:06:13.172Z,101653.84
2023-02-11T10:09:13.860Z,101643.38
2023-02-11T10:11:46.403Z,101655.19
2023-02-11T10:14:43.249Z,101656.50
2023-02-11T10:17:37.764Z,101657.44
2023-02-11T10:20:04.264Z,101659.81
2023-02-11T10:22:41.393Z,101664.75
2023-02-11T10:25:24.792Z,101659.13
2023-02-11T10:27:53.532Z,101658.28
2023-02-11T10:30:34.145Z,101658.97
2023-02-11T10:33:18.659Z,101661.28
2023-02-11T10:35:45.760Z,101655.97
2023-02-11T10:38:12.456Z,101650.44
2023-02-11T10:40:40.062Z,101644.88
2023-02-11T10:43:13.420Z,101656.56
2023-02-11T10:45:47.021Z,101658.00
2023-02-11T10:48:36.503Z,101651.81
2023-02-11T10:51:17.462Z,101653.97
2023-02-11T10:53:45.410Z,101644.47
2023-02-11T10:56:22.163Z,101640.03
2023-02-11T10:59:05.420Z,101638.25
2023-02-11T11:01:43.661Z,101636.97
2023-02-11T11:04:27.103Z,101630.72
2023-02-11T11:06:53.634Z,101637.56
2023-02-11T11:09:31.211Z,101627.03
2023-02-11T11:11:58.146Z,101620.28
2023-02-11T11:14:29.461Z,101620.59
2023-02-11T11:16:56.174Z,101612.94
2023-02-11T11:19:24.770Z,101609.97
2023-02-11T11:21:54.100Z,101610.41
2023-02-11T11:24:44.995Z,101602.78
2023-02-11T11:27:19.644Z,101593.66
2023-02-11T11:29:52.062Z,101589.75
2023-02-11T11:32:32.495Z,101590.09
2023-02-11T11:35:03.630Z,101581.53
2023-02-11T11:37:34.562Z,101587.53
2023-02-11T11:40:16.368Z,101579.69
2023-02-11T11:42:43.728Z,101571.84
2023-02-11T11:45:16.415Z,101566.09
2023-02-11T11:48:06.245Z,101564.84
2023-02-11T11:50:45.219Z,101556.25
2023-02-11T11:53:20.533Z,101559.88
2023-02-11T11:56:09.695Z,101553.47
2023-02-11T11:58:36.230Z,101557.13
2023-02-11T12:01:40.382Z,101550.47
2023-02-11T12:04:18.734Z,101545.78
2023-02-11T12:07:08.401Z,101546.94
2023-02-11T12:09:50.051Z,101536.78
2023-02-11T12:12:41.315Z,101540.19
2023-02-11T12:15:36.615Z,101532.63
2023-02-11T12:18:33.152Z,101521.06
2023-02-11T12:21:30.241Z,101519.78
2023-02-11T12:24:12.046Z,101520.66
2023-02-11T12:26:51.782Z,101522.03
2023-02-11T12:29:37.438Z,101514.03
2023-02-11T12:32:19.833Z,101506.53
2023-02-11T12:35:40.201Z,101508.72
2023-02-11T12:38:26.136Z,101500.38
2023-02-11T12:40:55.672Z,101494.09
2023-02-11T12:43:26.545Z,101492.06
2023-02-11T12:46:11.578Z,101494.94
2023-02-11T12:48:38.177Z,101492.19
2023-02-11T12:51:14.482Z,101476.78
2023-02-11T12:53:43.954Z,101475.56
2023-02-11T12:56:31.020Z,101468.88
2023-02-11T12:59:00.682Z,101465.34
2023-02-11T13:01:32.524Z,101464.53
2023-02-11T13:04:30.778Z,101460.31
2023-02-11T13:07:02.371Z,101454.97
2023-02-11T13:09:36.780Z,101462.50
2023-02-11T13:12:25.426Z,101450.28
2023-02-11T13:14:57.015Z,101446.88
2023-02-11T13:17:48.373Z,101445.31
2023-02-11T13:20:46.708Z,101441.56
2023-02-11T13:23:15.953Z,101432.28
2023-02-11T13:25:46.425Z,101435.22
2023-02-11T13:28:32.389Z,101424.59
2023-02-11T13:31:03.982Z,101424.19
2023-02-11T13:33:43.061Z,101422.78
2023-02-11T13:36:09.473Z,101413.63
2023-02-11T13:38:37.732Z,101412.06
2023-02-11T13:41:06.613Z,101409.66
2023-02-11T13:43:36.441Z,101410.56
2023-02-11T13:46:07.089Z,101410.00
2023-02-11T13:48:38.044Z,101414.84
2023-02-11T13:51:10.650Z,101415.41
2023-02-11T13:53:50.408Z,101411.44
2023-02-11T13:56:32.394Z,101411.53
2023-02-11T13:59:02.306Z,101406.94
2023-02-11T14:02:07.665Z,101404.97
2023-02-11T14:04:52.926Z,101397.13
2023-02-11T14:07:48.129Z,101396.44
2023-02-11T14:10:42.626Z,101390.16
2023-02-11T14:13:29.278Z,101381.72
2023-02-11T14:16:15.849Z,101392.72
2023-02-11T14:18:52.613Z,101395.81
2023-02-11T14:21:30.540Z,101393.78
2023-02-11T14:24:04.829Z,101388.06
2023-02-11T14:26:56.153Z,101388.75
2023-02-11T14:29:37.520Z,101383.28
2023-02-11T14:32:25.202Z,101386.19
2023-02-11T14:34:51.640Z,101378.50
2023-02-11T14:37:22.568Z,101378.41
2023-02-11T14:40:18.696Z,101377.09
2023-02-11T14:42:45.543Z,101377.00
2023-02-11T14:45:20.151Z,101371.53
2023-02-11T14:47:53.618Z,101359.34
2023-02-11T14:50:27.500Z,101365.91
2023-02-11T14:52:55.808Z,101365.25
2023-02-11T14:55:35.686Z,101364.19
2023-02-11T14:58:17.882Z,101365.97
2023-02-11T15:01:22.375Z,101357.16
2023-02-11T15:03:50.033Z,101360.50
2023-02-11T15:06:23.225Z,101360.09
2023-02-11T15:09:01.014Z,101365.88
2023-02-11T15:11:32.169Z,101362.38
2023-02-11T15:14:07.307Z,101359.63
2023-02-11T15:16:35.090Z,101359.81
2023-02-11T15:19:05.274Z,101361.84
2023-02-11T15:21:35.696Z,101354.47
2023-02-11T15:24:30.879Z,101365.53
2023-02-11T15:26:58.279Z,101357.50
2023-02-11T15:29:26.861Z,101367.66
2023-02-11T15:32:13.657Z,101374.25
2023-02-11T15:34:40.506Z,101370.56
2023-02-11T15:37:07.909Z,101375.16
2023-02-11T15:39:38.462Z,101370.47
2023-02-11T15:42:35.837Z,101364.94
2023-02-11T15:45:16.216Z,101363.69
2023-02-11T15:47:50.798Z,101363.25
2023-02-11T15:50:37.177Z,101367.22
2023-02-11T15:53:17.033Z,101371.00
2023-02-11T15:55:44.150Z,101370.22
2023-02-11T15:58:11.213Z,101368.16
2023-02-11T16:00:47.098Z,101369.44
2023-02-11T16:03:32.353Z,101365.28
2023-02-11T16:06:35.423Z,101375.53
2023-02-11T16:09:13.532Z,101374.13
2023-02-11T16:11:46.242Z,101374.97
2023-02-11T16:14:27.995Z,101370.50
2023-02-11T16:16:58.734Z,101377.22
2023-02-11T16:19:27.196Z,101370.25
2023-02-11T16:21:55.326Z,101373.16
2023-02-11T16:24:28.967Z,101374.56
2023-02-11T16:27:01.143Z,101364.78
2023-02-11T16:29:33.105Z,101370.91
2023-02-11T16:32:16.520Z,101372.34
2023-02-11T16:34:43.107Z,101369.47
2023-02-11T16:37:09.896Z,101366.94
2023-02-11T16:39:36.505Z,101375.91
2023-02-11T16:42:05.742Z,101374.09
2023-02-11T16:44:34.399Z,101377.38
2023-02-11T16:47:03.277Z,101375.94
2023-02-11T16:49:35.949Z,101374.72
2023-02-11T16:52:07.725Z,101381.22
2023-02-11T16:54:34.812Z,101375.84
2023-02-11T16:57:02.595Z,101380.22
2023-02-11T16:59:29.202Z,101381.34
2023-02-11T17:01:57.064Z,101384.16
2023-02-11T17:04:29.484Z,101389.56
2023-02-11T17:06:58.373Z,101378.16
2023-02-11T17:09:30.297Z,101383.09
2023-02-11T17:11:57.580Z,101386.31
2023-02-11T17:14:24.174Z,101388.88
2023-02-11T17:16:50.717Z,101384.78
2023-02-11T17:19:20.902Z,101398.69
2023-02-11T17:21:49.837Z,101395.34
2023-02-11T17:24:17.125Z,101398.03
2023-02-11T17:26:45.015Z,101391.91
2023-02-11T17:29:14.724Z,101404.59
2023-02-11T17:31:42.001Z,101403.78
2023-02-11T17:34:08.816Z,101415.84
2023-02-11T17:36:35.300Z,101417.94
2023-02-11T17:39:03.264Z,101405.34
2023-02-11T17:41:31.432Z,101403.03
2023-02-11T17:43:58.890Z,101408.69
2023-02-11T17:46:25.501Z,101417.75
2023-02-11T17:48:53.217Z,101412.41
2023-02-11T17:51:27.028Z,101418.41
2023-02-11T17:53:53.941Z,101419.69
2023-02-11T17:56:21.400Z,101418.28
2023-02-11T17:58:47.869Z,101420.22
2023-02-11T18:01:14.702Z,101417.75
2023-02-11T18:03:41.370Z,101428.25
2023-02-11T18:06:08.170Z,101432.06
2023-02-11T18:08:35.748Z,101429.34
2023-02-11T18:11:02.882Z,101431.69
2023-02-11T18:13:29.476Z,101430.25
2023-02-11T18:16:01.513Z,101433.78
2023-02-11T18:18:28.007Z,101434.22
2023-02-11T18:21:03.905Z,101434.66
2023-02-11T18:23:30.775Z,101432.06
2023-02-11T18:25:57.324Z,101437.22
2023-02-11T18:28:23.910Z,101442.47
2023-02-11T18:30:58.683Z,101442.28
2023-02-11T18:33:25.361Z,101444.91
2023-02-11T18:35:52.965Z,101450.56
2023-02-11T18:38:19.782Z,101445.91
2023-02-11T18:40:47.527Z,101444.38
2023-02-11T18:43:14.406Z,101443.72
2023-02-11T18:45:45.312Z,101448.38
2023-02-11T18:48:12.474Z,101450.81
2023-02-11T18:50:44.545Z,101447.16
2023-02-11T18:53:15.980Z,101454.19
2023-02-11T18:55:44.474Z,101466.13
2023-02-11T18:58:11.392Z,101461.38
2023-02-11T19:00:41.443Z,101464.25
2023-02-11T19:03:08.385Z,101455.84
2023-02-11T19:05:48.799Z,101463.03
2023-02-11T19:08:16.998Z,101465.38
2023-02-11T19:10:46.373Z,101458.06
2023-02-11T19:13:13.990Z,101458.19
2023-02-11T19:15:42.625Z,101459.41
2023-02-11T19:18:09.509Z,101456.97
2023-02-11T19:20:39.519Z,101453.47
2023-02-11T19:23:06.039Z,101445.72
2023-02-11T19:25:32.613Z,101449.13
2023-02-11T19:28:00.369Z,101456.44
2023-02-11T19:30:27.301Z,101451.47
2023-02-11T19:32:57.011Z,101454.44
2023-02-11T19:35:24.359Z,101443.84
2023-02-11T19:37:50.862Z,101453.69
2023-02-11T19:40:17.679Z,101440.41
2023-02-11T19:42:44.344Z,101449.47
2023-02-11T19:45:10.913Z,101448.50
2023-02-11T19:47:37.524Z,101448.81
2023-02-11T19:50:05.419Z,101452.22
2023-02-11T19:52:32.250Z,101457.75
2023-02-11T19:54:59.064Z,101448.25
2023-02-11T19:57:25.645Z,101455.75
2023-02-11T19:59:54.812Z,101450.56
2023-02-11T20:02:21.351Z,101440.84
2023-02-11T20:04:48.090Z,101450.56
2023-02-11T20:07:14.735Z,101447.28
2023-02-11T20:09:42.544Z,101449.47
2023-02-11T20:12:09.789Z,101452.78
2023-02-11T20:14:36.377Z,101451.56
2023-02-11T20:17:02.936Z,101446.91
2023-02-11T20:19:30.671Z,101467.16
2023-02-11T20:21:57.556Z,101458.78
2023-02-11T20:24:25.611Z,101462.75
2023-02-11T20:26:55.613Z,101459.38
2023-02-11T20:29:24.501Z,101459.91
2023-02-11T20:31:51.413Z,101461.22
2023-02-11T20:34:18.724Z,101465.97
2023-02-11T20:36:52.303Z,101468.81
2023-02-11T20:39:21.831Z,101460.88
2023-02-11T20:41:49.378Z,101466.94
2023-02-11T20:44:16.291Z,101467.59
2023-02-11T20:46:46.577Z,101473.34
2023-02-11T20:49:15.394Z,101471.22
2023-02-11T20:51:42.559Z,101476.97
2023-02-11T20:54:13.154Z,101475.97
2023-02-11T20:56:39.849Z,101472.66
2023-02-11T20:59:06.496Z,101468.47
2023-02-11T21:01:40.277Z,101469.22
2023-02-11T21:04:10.945Z,101467.97
2023-02-11T21:06:41.300Z,101461.34
2023-02-11T21:09:11.363Z,101458.06
2023-02-11T21:11:38.013Z,101465.69
2023-02-11T21:14:04.649Z,101446.66
2023-02-11T21:16:32.480Z,101452.31
2023-02-11T21:19:00.627Z,101451.09
2023-02-11T21:21:27.219Z,101439.81
2023-02-11T21:23:53.791Z,101450.63
2023-02-11T21:26:20.328Z,101453.63
2023-02-11T21:28:48.758Z,101457.06
2023-02-11T21:31:22.426Z,101450.63
2023-02-11T21:33:50.344Z,101445.00
2023-02-11T21:36:17.619Z,101450.06
2023-02-11T21:38:44.379Z,101447.88
2023-02-11T21:41:11.771Z,101446.31
2023-02-11T21:43:38.756Z,101446.63
2023-02-11T21:46:11.265Z,101452.13
2023-02-11T21:48:38.173Z,101451.22
2023-02-11T21:51:07.066Z,101448.34
2023-02-11T21:53:34.709Z,101443.16
2023-02-11T21:56:05.937Z,101450.91
2023-02-11T21:58:32.704Z,101446.94
2023-02-11T22:00:59.507Z,101446.16
2023-02-11T22:03:26.028Z,101441.47
2023-02-11T22:05:52.812Z,101437.19
2023-02-11T22:08:20.320Z,101436.84
2023-02-11T22:10:46.965Z,101435.94
2023-02-11T22:13:13.443Z,101435.72
2023-02-11T22:15:39.917Z,101437.47
2023-02-11T22:18:06.388Z,101432.06
2023-02-11T22:20:32.919Z,101436.34
2023-02-11T22:22:59.567Z,101438.38
2023-02-11T22:25:26.071Z,101435.16
2023-02-11T22:27:52.663Z,101440.97
2023-02-11T22:30:19.331Z,101429.78
2023-02-11T22:32:47.402Z,101432.88
2023-02-11T22:35:13.964Z,101430.47
2023-02-11T22:37:40.530Z,101431.66
2023-02-11T22:40:07.747Z,101436.59
2023-02-11T22:42:34.215Z,101428.97
2023-02-11T22:45:00.785Z,101428.75
2023-02-11T22:47:27.618Z,101428.28
2023-02-11T22:49:54.129Z,101428.16
2023-02-11T22:52:22.414Z,101438.44
2023-02-11T22:54:51.094Z,101430.81
2023-02-11T22:57:17.864Z,101428.91
2023-02-11T22:59:44.484Z,101433.66
2023-02-11T23:02:11.178Z,101428.34
2023-02-11T23:04:38.014Z,101434.31
2023-02-11T23:07:04.600Z,101428.22
2023-02-11T23:09:31.207Z,101426.56
2023-02-11T23:11:57.936Z,101430.94
2023-02-11T23:14:24.527Z,101429.41
2023-02-11T23:16:51.578Z,101433.38
2023-02-11T23:19:18.788Z,101421.69
2023-02-11T23:21:45.528Z,101426.38
2023-02-11T23:24:14.800Z,101417.34
2023-02-11T23:26:43.071Z,101416.78
2023-02-11T23:29:10.480Z,101416.66
2023-02-11T23:31:40.383Z,101415.53
2023-02-11T23:34:08.270Z,101422.03
2023-02-11T23:36:34.935Z,101412.28
2023-02-11T23:39:01.791Z,101415.47
2023-02-11T23:41:28.736Z,101414.59
2023-02-11T23:43:57.926Z,101418.88
2023-02-11T23:46:26.973Z,101417.13
2023-02-11T23:48:53.764Z,101427.78
2023-02-11T23:51:21.125Z,101435.94
2023-02-11T23:53:49.398Z,101434.75
2023-02-11T23:56:22.795Z,101431.59
2023-02-11T23:58:51.395Z,101430.75
